Main page
METAR-TAF:

METAR-TAF

Airports :

St. Gallen–Altenrhein Airport

St. Gallen, Switzerland

latitude: 47-29-06N, longitude: 009-33-43E, elevation: 398 m

Current weather observation

The report was made 17 minutes ago, at 12:20 UTC
Wind 13 kt from the West
Temperature 9°C
Humidity 66%
Pressure 1004 hPa
Visibility 10 km or more
Scattered clouds at a height of 3500 ft
Broken clouds at a height of 4500 ft

METAR: LSZR 141220Z 26013KT 9999 SCT035 BKN045 09/03 Q1004 NOSIG RMK G

Time: 13:37 (12:37 UTC)

Forecast

The report was made 1 hour and 12 minutes ago, at 11:25 UTC
Forecast valid from 14 at 12 UTC to 14 at 21 UTC
Wind 13 kt from the West/Southwest
Visibility 10 km or more
Scattered clouds at a height of 3500 ft
Broken clouds at a height of 4000 ft
Temporary
from 14 at 14 UTC to 14 at 21 UTC
Wind 6 kt from the South

TAF: LSZR 141125Z 1412/1421 25013KT 9999 SCT035 BKN040 TEMPO 1414/1421 19006KT

Weather observations and forecasts of more than 4000 airports (METAR and TAF reports).

The available stations are represented by yellow and red dots on the map.

Hover mouse over dot to see the name of the station.

Then click to see weather observations and forecasts.

To change the map : click on the green buttons with a black cross to zoom in, on the green button with a dash to zoom out, or on the green arrows for adjacent maps.


METAR-TAF: